createdAt,value
2022-08-27T00:00:17.839Z,6.20
2022-08-27T00:02:45.374Z,6.22
2022-08-27T00:05:14.687Z,5.53
2022-08-27T00:07:42.583Z,5.60
2022-08-27T00:10:12.671Z,5.72
2022-08-27T00:12:39.326Z,5.45
2022-08-27T00:15:07.750Z,5.43
2022-08-27T00:17:35.513Z,5.47
2022-08-27T00:20:02.906Z,5.03
2022-08-27T00:24:55.952Z,5.20
2022-08-27T00:27:22.516Z,5.93
2022-08-27T00:29:49.496Z,6.50
2022-08-27T00:32:16.748Z,5.85
2022-08-27T00:37:10.025Z,5.63
2022-08-27T00:39:39.631Z,6.78
2022-08-27T00:42:07.596Z,6.10
2022-08-27T00:44:34.855Z,5.70
2022-08-27T00:47:06.877Z,5.95
2022-08-27T00:49:51.118Z,5.78
2022-08-27T00:52:46.244Z,6.30
2022-08-27T00:55:18.662Z,6.18
2022-08-27T00:57:49.523Z,5.57
2022-08-27T01:00:18.594Z,6.20
2022-08-27T01:02:47.337Z,6.15
2022-08-27T01:05:18.336Z,6.38
2022-08-27T01:07:48.580Z,6.38
2022-08-27T01:10:21.418Z,6.38
2022-08-27T01:12:53.567Z,6.22
2022-08-27T01:15:23.381Z,5.72
2022-08-27T01:17:51.029Z,5.82
2022-08-27T01:20:24.889Z,6.07
2022-08-27T01:22:57.193Z,6.55
2022-08-27T01:25:25.133Z,6.85
2022-08-27T01:27:52.900Z,5.75
2022-08-27T01:30:21.731Z,5.88
2022-08-27T01:32:49.095Z,6.05
2022-08-27T01:37:47.733Z,5.47
2022-08-27T01:40:16.797Z,6.28
2022-08-27T01:42:46.769Z,5.55
2022-08-27T01:45:17.750Z,5.80
2022-08-27T01:47:44.533Z,6.25
2022-08-27T01:50:31.801Z,5.53
2022-08-27T01:53:09.112Z,5.78
2022-08-27T01:55:35.801Z,5.95
2022-08-27T01:58:02.969Z,6.00
2022-08-27T02:00:34.750Z,5.57
2022-08-27T02:03:01.403Z,6.22
2022-08-27T02:05:29.643Z,6.18
2022-08-27T02:07:56.738Z,6.85
2022-08-27T02:10:27.428Z,5.90
2022-08-27T02:12:54.124Z,5.82
2022-08-27T02:15:21.795Z,6.03
2022-08-27T02:17:48.529Z,6.55
2022-08-27T02:20:15.844Z,6.03
2022-08-27T02:25:12.279Z,6.53
2022-08-27T02:27:39.469Z,6.18
2022-08-27T02:30:07.796Z,6.90
2022-08-27T02:32:34.710Z,6.00
2022-08-27T02:35:03.312Z,6.03
2022-08-27T02:37:30.981Z,5.68
2022-08-27T02:39:58.008Z,5.43
2022-08-27T02:42:24.843Z,5.95
2022-08-27T02:44:51.430Z,5.45
2022-08-27T02:47:18.498Z,5.32
2022-08-27T02:49:45.077Z,6.05
2022-08-27T02:52:12.992Z,5.95
2022-08-27T02:54:40.207Z,5.78
2022-08-27T02:57:06.775Z,5.50
2022-08-27T02:59:33.475Z,5.97
2022-08-27T03:02:00.195Z,6.32
2022-08-27T03:04:28.840Z,5.85
2022-08-27T03:06:56.414Z,6.18
2022-08-27T03:09:22.988Z,5.93
2022-08-27T03:11:49.566Z,5.87
2022-08-27T03:14:16.167Z,6.57
2022-08-27T03:16:42.843Z,6.18
2022-08-27T03:19:11.038Z,6.43
2022-08-27T03:21:37.649Z,6.63
2022-08-27T03:24:09.433Z,6.13
2022-08-27T03:26:39.358Z,5.90
2022-08-27T03:29:06.377Z,6.18
2022-08-27T03:31:33.155Z,5.63
2022-08-27T03:34:02.918Z,5.95
2022-08-27T03:36:31.076Z,6.32
2022-08-27T03:38:58.456Z,5.65
2022-08-27T03:44:18.162Z,5.78
2022-08-27T03:46:49.091Z,5.28
2022-08-27T03:51:47.182Z,6.03
2022-08-27T03:54:13.769Z,6.00
2022-08-27T03:56:41.713Z,5.47
2022-08-27T03:59:08.771Z,5.40
2022-08-27T04:01:36.005Z,5.38
2022-08-27T04:06:29.305Z,6.00
2022-08-27T04:08:56.315Z,5.90
2022-08-27T04:11:23.422Z,5.80
2022-08-27T04:13:50.070Z,5.80
2022-08-27T04:16:16.852Z,6.07
2022-08-27T04:18:43.516Z,6.05
2022-08-27T04:21:12.622Z,6.00
2022-08-27T04:23:40.781Z,6.18
2022-08-27T04:26:09.902Z,6.60
2022-08-27T04:28:38.817Z,6.60
2022-08-27T04:31:06.802Z,7.03
2022-08-27T04:33:39.518Z,6.40
2022-08-27T04:36:10.082Z,6.75
2022-08-27T04:38:37.945Z,6.93
2022-08-27T04:41:22.364Z,6.35
2022-08-27T04:43:56.922Z,6.25
2022-08-27T04:46:29.145Z,6.60
2022-08-27T04:49:01.771Z,6.93
2022-08-27T04:51:29.731Z,6.28
2022-08-27T04:53:57.628Z,7.78
2022-08-27T04:56:28.668Z,7.68
2022-08-27T04:58:55.668Z,8.18
2022-08-27T05:01:25.856Z,8.82
2022-08-27T05:03:52.705Z,8.68
2022-08-27T05:06:20.155Z,7.93
2022-08-27T05:08:49.132Z,6.80
2022-08-27T05:11:17.006Z,7.30
2022-08-27T05:13:44.909Z,6.50
2022-08-27T05:16:14.921Z,8.52
2022-08-27T05:18:48.384Z,9.13
2022-08-27T05:21:20.196Z,6.75
2022-08-27T05:23:47.678Z,7.03
2022-08-27T05:26:14.798Z,7.15
2022-08-27T05:28:41.475Z,7.25
2022-08-27T05:31:12.047Z,7.10
2022-08-27T05:33:40.218Z,6.72
2022-08-27T05:36:08.779Z,6.30
2022-08-27T05:38:36.228Z,6.45
2022-08-27T05:43:37.343Z,6.90
2022-08-27T05:46:16.135Z,6.60
2022-08-27T05:48:43.794Z,7.10
2022-08-27T05:51:12.210Z,6.75
2022-08-27T05:53:39.623Z,6.80
2022-08-27T05:58:58.682Z,6.88
2022-08-27T06:01:26.090Z,7.07
2022-08-27T06:03:54.960Z,6.47
2022-08-27T06:06:22.902Z,6.65
2022-08-27T06:08:52.668Z,5.85
2022-08-27T06:11:19.756Z,5.68
2022-08-27T06:13:47.099Z,5.78
2022-08-27T06:16:16.472Z,5.68
2022-08-27T06:18:45.496Z,5.65
2022-08-27T06:21:14.148Z,5.85
2022-08-27T06:23:40.943Z,5.70
2022-08-27T06:26:10.466Z,6.25
2022-08-27T06:28:37.295Z,5.35
2022-08-27T06:31:10.093Z,5.20
2022-08-27T06:33:37.845Z,5.03
2022-08-27T06:36:06.763Z,5.10
2022-08-27T06:38:34.597Z,5.18
2022-08-27T06:41:04.744Z,4.72
2022-08-27T06:43:31.975Z,4.85
2022-08-27T06:46:02.829Z,4.85
2022-08-27T06:48:29.561Z,5.45
2022-08-27T06:51:00.997Z,5.18
2022-08-27T06:53:27.605Z,6.07
2022-08-27T06:55:54.406Z,4.97
2022-08-27T06:58:22.307Z,5.50
2022-08-27T07:00:49.200Z,5.45
2022-08-27T07:03:16.012Z,5.10
2022-08-27T07:05:42.754Z,4.70
2022-08-27T07:08:10.450Z,4.57
2022-08-27T07:10:37.692Z,4.72
2022-08-27T07:13:05.188Z,5.00
2022-08-27T07:15:32.960Z,4.97
2022-08-27T07:18:01.808Z,4.68
2022-08-27T07:20:30.649Z,4.75
2022-08-27T07:22:59.034Z,5.38
2022-08-27T07:25:26.260Z,5.22
2022-08-27T07:27:52.973Z,4.90
2022-08-27T07:30:19.830Z,4.85
2022-08-27T07:32:47.138Z,5.00
2022-08-27T07:35:14.233Z,5.75
2022-08-27T07:37:41.958Z,5.13
2022-08-27T07:40:13.587Z,5.90
2022-08-27T07:43:00.897Z,5.22
2022-08-27T07:45:28.693Z,5.15
2022-08-27T07:47:55.348Z,5.03
2022-08-27T07:50:23.641Z,5.18
2022-08-27T07:52:51.536Z,5.40
2022-08-27T07:55:19.066Z,5.20
2022-08-27T07:57:48.058Z,5.95
2022-08-27T08:00:15.502Z,5.30
2022-08-27T08:02:44.916Z,5.72
2022-08-27T08:05:12.646Z,5.80
2022-08-27T08:07:39.874Z,5.07
2022-08-27T08:10:08.014Z,5.85
2022-08-27T08:12:39.605Z,4.80
2022-08-27T08:15:10.914Z,5.85
2022-08-27T08:17:40.400Z,5.68
2022-08-27T08:20:30.880Z,5.28
2022-08-27T08:22:55.204Z,5.35
2022-08-27T08:25:22.182Z,6.72
2022-08-27T08:30:15.414Z,5.38
2022-08-27T08:32:43.351Z,5.55
2022-08-27T08:35:10.570Z,6.00
2022-08-27T08:37:37.977Z,6.55
2022-08-27T08:40:06.071Z,6.15
2022-08-27T08:42:38.748Z,5.97
2022-08-27T08:45:07.210Z,5.90
2022-08-27T08:47:48.365Z,6.50
2022-08-27T08:50:22.854Z,6.15
2022-08-27T08:52:56.359Z,5.53
2022-08-27T08:55:47.770Z,5.30
2022-08-27T08:58:38.516Z,5.57
2022-08-27T09:01:08.507Z,5.72
2022-08-27T09:03:42.005Z,5.63
2022-08-27T09:06:29.688Z,5.70
2022-08-27T09:08:56.459Z,5.63
2022-08-27T09:11:45.677Z,5.70
2022-08-27T09:14:31.697Z,5.78
2022-08-27T09:17:01.325Z,6.30
2022-08-27T09:19:28.766Z,6.07
2022-08-27T09:24:33.909Z,5.97
2022-08-27T09:27:00.497Z,5.68
2022-08-27T09:29:29.137Z,5.82
2022-08-27T09:32:07.463Z,5.60
2022-08-27T09:34:40.174Z,5.13
2022-08-27T09:37:12.129Z,5.70
2022-08-27T09:39:53.243Z,5.70
2022-08-27T09:42:29.916Z,5.72
2022-08-27T09:47:24.932Z,5.32
2022-08-27T09:50:07.236Z,6.43
2022-08-27T09:52:45.420Z,5.47
2022-08-27T09:55:12.068Z,5.30
2022-08-27T09:57:41.896Z,5.32
2022-08-27T10:00:15.936Z,5.57
2022-08-27T10:02:51.419Z,5.15
2022-08-27T10:05:32.241Z,6.40
2022-08-27T10:08:18.574Z,5.78
2022-08-27T10:10:55.205Z,5.43
2022-08-27T10:13:33.381Z,5.30
2022-08-27T10:16:18.902Z,5.72
2022-08-27T10:19:07.223Z,5.67
2022-08-27T10:22:11.425Z,6.15
2022-08-27T10:24:44.110Z,5.50
2022-08-27T10:27:35.707Z,5.85
2022-08-27T10:30:04.936Z,5.18
2022-08-27T10:33:06.007Z,5.43
2022-08-27T10:36:00.492Z,5.68
2022-08-27T10:39:08.798Z,5.20
2022-08-27T10:41:42.519Z,5.47
2022-08-27T10:44:39.442Z,5.68
2022-08-27T10:47:14.524Z,15.38
2022-08-27T10:49:57.833Z,6.13
2022-08-27T10:52:32.465Z,5.30
2022-08-27T10:55:12.844Z,5.40
2022-08-27T10:58:01.357Z,5.38
2022-08-27T11:00:46.456Z,5.53
2022-08-27T11:03:32.172Z,5.72
2022-08-27T11:06:07.332Z,5.75
2022-08-27T11:08:41.171Z,5.57
2022-08-27T11:14:33.047Z,5.63
2022-08-27T11:17:06.345Z,6.53
2022-08-27T11:19:51.753Z,5.88
2022-08-27T11:22:26.791Z,5.60
2022-08-27T11:25:19.542Z,5.70
2022-08-27T11:27:48.662Z,5.47
2022-08-27T11:30:54.474Z,5.95
2022-08-27T11:33:27.499Z,4.53
2022-08-27T11:36:28.959Z,5.25
2022-08-27T11:39:06.275Z,5.00
2022-08-27T11:41:59.116Z,4.43
2022-08-27T11:44:26.735Z,6.10
2022-08-27T11:47:08.924Z,5.45
2022-08-27T11:49:44.968Z,4.63
2022-08-27T11:54:53.081Z,4.32
2022-08-27T11:57:36.826Z,4.68
2022-08-27T12:00:18.624Z,5.07
2022-08-27T12:02:57.398Z,5.15
2022-08-27T12:05:33.747Z,5.20
2022-08-27T12:08:15.402Z,5.22
2022-08-27T12:11:14.175Z,5.30
2022-08-27T12:13:50.628Z,4.70
2022-08-27T12:16:44.891Z,4.90
2022-08-27T12:19:33.293Z,4.70
2022-08-27T12:22:59.104Z,7.22
2022-08-27T12:25:26.018Z,4.43
2022-08-27T12:30:37.003Z,5.05
2022-08-27T12:33:27.970Z,4.70
2022-08-27T12:35:58.973Z,4.55
2022-08-27T12:38:26.144Z,4.60
2022-08-27T12:40:56.189Z,4.68
2022-08-27T12:43:26.188Z,4.75
2022-08-27T12:46:00.798Z,4.65
2022-08-27T12:48:31.152Z,4.32
2022-08-27T12:51:01.554Z,4.55
2022-08-27T12:53:45.220Z,4.30
2022-08-27T12:56:24.524Z,4.50
2022-08-27T12:59:14.204Z,5.00
2022-08-27T13:02:09.800Z,4.70
2022-08-27T13:04:41.493Z,4.60
2022-08-27T13:07:08.151Z,6.22
2022-08-27T13:09:39.083Z,4.55
2022-08-27T13:12:16.825Z,5.30
2022-08-27T13:14:43.768Z,4.55
2022-08-27T13:17:21.944Z,5.20
2022-08-27T13:19:55.652Z,4.90
2022-08-27T13:22:43.698Z,5.10
2022-08-27T13:25:30.245Z,4.75
2022-08-27T13:28:08.437Z,4.60
2022-08-27T13:30:38.141Z,4.80
2022-08-27T13:33:07.711Z,5.20
2022-08-27T13:35:35.302Z,5.10
2022-08-27T13:38:03.719Z,4.88
2022-08-27T13:40:34.755Z,5.68
2022-08-27T13:43:08.837Z,5.95
2022-08-27T13:45:38.021Z,5.13
2022-08-27T13:48:05.632Z,5.20
2022-08-27T13:50:34.276Z,5.28
2022-08-27T13:53:29.079Z,5.03
2022-08-27T13:55:57.914Z,5.03
2022-08-27T13:58:31.215Z,5.53
2022-08-27T14:01:10.976Z,7.63
2022-08-27T14:03:47.897Z,5.85
2022-08-27T14:06:45.255Z,6.00
2022-08-27T14:09:27.419Z,5.88
2022-08-27T14:12:06.584Z,5.18
2022-08-27T14:14:41.285Z,5.22
2022-08-27T14:17:29.487Z,5.65
2022-08-27T14:20:01.798Z,5.70
2022-08-27T14:22:28.748Z,5.25
2022-08-27T14:24:55.339Z,6.00
2022-08-27T14:27:22.025Z,5.72
2022-08-27T14:29:49.677Z,5.88
2022-08-27T14:32:19.132Z,5.72
2022-08-27T14:34:46.291Z,5.70
2022-08-27T14:37:14.568Z,5.65
2022-08-27T14:39:43.577Z,5.90
2022-08-27T14:42:12.202Z,5.78
2022-08-27T14:44:38.989Z,5.75
2022-08-27T14:47:09.662Z,5.35
2022-08-27T14:49:42.397Z,5.32
2022-08-27T14:52:09.709Z,5.40
2022-08-27T14:54:36.721Z,5.88
2022-08-27T14:57:04.972Z,5.97
2022-08-27T14:59:32.661Z,5.53
2022-08-27T15:02:01.430Z,5.93
2022-08-27T15:04:29.698Z,5.60
2022-08-27T15:06:56.621Z,5.40
2022-08-27T15:11:50.812Z,5.95
2022-08-27T15:14:28.620Z,6.65
2022-08-27T15:16:55.719Z,5.35
2022-08-27T15:19:25.345Z,5.50
2022-08-27T15:21:54.699Z,6.10
2022-08-27T15:24:25.748Z,5.97
2022-08-27T15:26:54.922Z,5.85
2022-08-27T15:29:21.646Z,7.07
2022-08-27T15:31:48.475Z,6.50
2022-08-27T15:34:15.115Z,6.18
2022-08-27T15:36:42.548Z,26.58
2022-08-27T15:39:09.812Z,6.63
2022-08-27T15:42:03.082Z,8.60
2022-08-27T15:44:26.081Z,6.72
2022-08-27T15:46:52.709Z,6.38
2022-08-27T15:49:19.340Z,6.03
2022-08-27T15:51:46.110Z,6.32
2022-08-27T15:54:12.954Z,16.52
2022-08-27T15:56:40.090Z,24.90
2022-08-27T15:59:07.294Z,28.15
2022-08-27T16:01:37.277Z,17.30
2022-08-27T16:04:05.250Z,9.68
2022-08-27T16:06:32.120Z,19.20
2022-08-27T16:08:58.761Z,9.07
2022-08-27T16:11:25.550Z,10.80
2022-08-27T16:13:52.311Z,7.68
2022-08-27T16:16:27.830Z,7.70
2022-08-27T16:18:54.868Z,7.63
2022-08-27T16:23:48.121Z,9.40
2022-08-27T16:26:15.046Z,10.90
2022-08-27T16:28:41.632Z,7.97
2022-08-27T16:31:11.398Z,7.10
2022-08-27T16:33:40.634Z,8.07
2022-08-27T16:36:07.508Z,7.60
2022-08-27T16:38:34.365Z,13.27
2022-08-27T16:41:01.027Z,16.98
2022-08-27T16:43:28.596Z,6.95
2022-08-27T16:45:56.949Z,13.18
2022-08-27T16:48:42.539Z,8.00
2022-08-27T16:51:22.846Z,7.85
2022-08-27T16:53:50.945Z,10.60
2022-08-27T16:56:20.463Z,37.28
2022-08-27T16:58:48.986Z,15.55
2022-08-27T17:01:19.813Z,8.25
2022-08-27T17:04:07.949Z,6.93
2022-08-27T17:06:37.936Z,6.97
2022-08-27T17:09:07.097Z,6.40
2022-08-27T17:11:35.710Z,6.47
2022-08-27T17:14:04.622Z,7.05
2022-08-27T17:16:34.159Z,7.50
2022-08-27T17:19:02.272Z,7.70
2022-08-27T17:21:30.277Z,9.60
2022-08-27T17:23:59.434Z,13.68
2022-08-27T17:26:26.352Z,12.23
2022-08-27T17:28:53.432Z,42.05
2022-08-27T17:33:59.153Z,14.68
2022-08-27T17:36:27.252Z,8.25
2022-08-27T17:38:54.600Z,8.32
2022-08-27T17:41:21.138Z,8.52
2022-08-27T17:43:48.078Z,8.98
2022-08-27T17:46:15.792Z,7.80
2022-08-27T17:48:42.969Z,9.20
2022-08-27T17:51:12.229Z,8.48
2022-08-27T17:53:47.102Z,8.32
2022-08-27T17:56:15.805Z,8.05
2022-08-27T17:58:42.422Z,8.25
2022-08-27T18:01:11.470Z,7.78
2022-08-27T18:03:44.920Z,8.05
2022-08-27T18:06:14.966Z,8.40
2022-08-27T18:08:41.810Z,8.30
2022-08-27T18:11:09.891Z,8.48
2022-08-27T18:13:37.307Z,8.00
2022-08-27T18:16:05.289Z,8.65
2022-08-27T18:18:32.324Z,9.07
2022-08-27T18:20:58.941Z,9.20
2022-08-27T18:23:25.543Z,9.32
2022-08-27T18:25:52.295Z,9.13
2022-08-27T18:28:19.748Z,8.93
2022-08-27T18:30:47.304Z,9.35
2022-08-27T18:33:14.474Z,9.10
2022-08-27T18:35:42.230Z,9.77
2022-08-27T18:38:09.257Z,9.38
2022-08-27T18:40:41.819Z,10.10
2022-08-27T18:43:08.596Z,9.13
2022-08-27T18:45:37.706Z,10.38
2022-08-27T18:48:13.902Z,9.68
2022-08-27T18:50:48.731Z,9.90
2022-08-27T18:53:18.073Z,9.18
2022-08-27T18:55:44.829Z,8.98
2022-08-27T18:58:11.672Z,9.05
2022-08-27T19:00:42.902Z,8.85
2022-08-27T19:03:10.831Z,9.55
2022-08-27T19:05:37.531Z,8.50
2022-08-27T19:08:04.221Z,8.77
2022-08-27T19:10:31.397Z,8.68
2022-08-27T19:12:58.077Z,8.80
2022-08-27T19:15:24.726Z,8.80
2022-08-27T19:17:55.240Z,9.40
2022-08-27T19:20:22.100Z,10.23
2022-08-27T19:22:48.741Z,10.68
2022-08-27T19:25:17.408Z,8.88
2022-08-27T19:27:45.161Z,9.27
2022-08-27T19:30:12.886Z,10.52
2022-08-27T19:32:39.576Z,11.57
2022-08-27T19:35:06.888Z,11.27
2022-08-27T19:40:02.448Z,11.25
2022-08-27T19:42:29.400Z,11.43
2022-08-27T19:44:56.780Z,11.68
2022-08-27T19:47:25.939Z,11.95
2022-08-27T19:49:53.674Z,10.80
2022-08-27T19:52:20.551Z,10.32
2022-08-27T19:55:10.288Z,10.75
2022-08-27T19:57:33.832Z,10.15
2022-08-27T20:00:00.568Z,10.68
2022-08-27T20:02:27.713Z,10.70
2022-08-27T20:05:16.416Z,9.85
2022-08-27T20:07:40.900Z,11.50
2022-08-27T20:10:08.576Z,10.00
2022-08-27T20:12:36.267Z,10.20
2022-08-27T20:15:03.838Z,10.43
2022-08-27T20:17:30.466Z,9.57
2022-08-27T20:19:58.565Z,10.75
2022-08-27T20:22:25.219Z,9.70
2022-08-27T20:24:51.871Z,9.88
2022-08-27T20:27:18.512Z,9.80
2022-08-27T20:29:45.150Z,10.68
2022-08-27T20:32:13.175Z,10.85
2022-08-27T20:34:39.986Z,10.80
2022-08-27T20:37:06.752Z,10.18
2022-08-27T20:39:33.439Z,10.73
2022-08-27T20:42:00.128Z,10.73
2022-08-27T20:44:26.752Z,9.77
2022-08-27T20:46:59.482Z,10.02
2022-08-27T20:49:27.945Z,10.88
2022-08-27T20:52:02.552Z,9.73
2022-08-27T20:54:31.669Z,10.00
2022-08-27T20:56:58.583Z,9.93
2022-08-27T20:59:44.082Z,10.40
2022-08-27T21:02:12.479Z,9.73
2022-08-27T21:04:48.412Z,10.35
2022-08-27T21:07:17.239Z,9.68
2022-08-27T21:09:56.129Z,10.10
2022-08-27T21:12:26.396Z,10.10
2022-08-27T21:14:54.869Z,9.48
2022-08-27T21:17:24.372Z,9.48
2022-08-27T21:19:51.201Z,9.82
2022-08-27T21:22:18.131Z,9.50
2022-08-27T21:24:47.153Z,9.48
2022-08-27T21:27:15.742Z,9.60
2022-08-27T21:29:44.837Z,9.90
2022-08-27T21:32:13.933Z,10.13
2022-08-27T21:34:44.190Z,10.02
2022-08-27T21:37:12.410Z,11.00
2022-08-27T21:39:40.914Z,10.40
2022-08-27T21:42:08.661Z,10.60
2022-08-27T21:44:35.867Z,9.98
2022-08-27T21:47:03.804Z,10.68
2022-08-27T21:49:32.617Z,10.48
2022-08-27T21:52:00.587Z,10.60
2022-08-27T21:54:27.720Z,10.55
2022-08-27T21:56:54.828Z,10.52
2022-08-27T21:59:21.921Z,10.00
2022-08-27T22:01:52.933Z,10.55
2022-08-27T22:04:26.755Z,10.55
2022-08-27T22:06:57.272Z,10.80
2022-08-27T22:09:23.914Z,10.35
2022-08-27T22:11:50.515Z,10.82
2022-08-27T22:14:17.410Z,10.35
2022-08-27T22:16:44.029Z,10.90
2022-08-27T22:19:10.665Z,10.30
2022-08-27T22:21:37.612Z,10.93
2022-08-27T22:24:04.426Z,11.10
2022-08-27T22:26:31.045Z,10.98
2022-08-27T22:28:57.642Z,10.70
2022-08-27T22:31:24.370Z,10.82
2022-08-27T22:33:51.097Z,10.77
2022-08-27T22:36:17.735Z,10.30
2022-08-27T22:38:44.314Z,10.35
2022-08-27T22:41:13.626Z,11.20
2022-08-27T22:43:40.248Z,11.05
2022-08-27T22:46:07.021Z,10.93
2022-08-27T22:48:33.706Z,10.82
2022-08-27T22:51:00.479Z,10.50
2022-08-27T22:53:27.047Z,10.93
2022-08-27T22:55:54.106Z,10.40
2022-08-27T22:58:24.350Z,10.27
2022-08-27T23:00:52.698Z,10.23
2022-08-27T23:03:19.717Z,10.52
2022-08-27T23:05:46.718Z,9.85
2022-08-27T23:08:14.409Z,9.45
2022-08-27T23:10:43.172Z,10.05
2022-08-27T23:13:10.745Z,9.20
2022-08-27T23:15:38.623Z,9.80
2022-08-27T23:18:05.807Z,11.10
2022-08-27T23:20:32.743Z,10.27
2022-08-27T23:22:59.354Z,9.95
2022-08-27T23:25:45.076Z,9.45
2022-08-27T23:28:15.050Z,10.43
2022-08-27T23:30:43.788Z,10.00
2022-08-27T23:33:11.131Z,10.00
2022-08-27T23:38:04.543Z,10.73
2022-08-27T23:40:31.299Z,10.18
2022-08-27T23:42:57.959Z,9.77
2022-08-27T23:45:26.000Z,10.15
2022-08-27T23:47:52.675Z,10.43
2022-08-27T23:50:19.883Z,10.25
2022-08-27T23:52:48.448Z,10.50
2022-08-27T23:55:15.313Z,10.35
2022-08-27T23:57:42.036Z,10.45
